createdAt,value
2022-09-28T00:03:49.544Z,98431.78
2022-09-28T00:08:05.525Z,98420.38
2022-09-28T00:12:21.915Z,98411.84
2022-09-28T00:16:42.225Z,98408.34
2022-09-28T00:21:10.206Z,98415.78
2022-09-28T00:25:26.417Z,98425.53
2022-09-28T00:29:42.463Z,98432.38
2022-09-28T00:33:58.696Z,98433.50
2022-09-28T00:38:16.882Z,98437.34
2022-09-28T00:42:32.903Z,98450.91
2022-09-28T00:46:49.955Z,98445.63
2022-09-28T00:51:09.344Z,98439.22
2022-09-28T00:55:40.563Z,98435.38
2022-09-28T00:59:56.975Z,98426.59
2022-09-28T01:04:12.991Z,98431.50
2022-09-28T01:08:30.475Z,98429.75
2022-09-28T01:12:46.492Z,98426.88
2022-09-28T01:17:11.735Z,98429.63
2022-09-28T01:21:27.857Z,98426.31
2022-09-28T01:25:50.892Z,98436.88
2022-09-28T01:30:18.146Z,98442.97
2022-09-28T01:34:48.952Z,98446.00
2022-09-28T01:39:24.602Z,98448.59
2022-09-28T01:43:45.558Z,98449.03
2022-09-28T01:48:05.055Z,98445.78
2022-09-28T01:52:28.781Z,98448.84
2022-09-28T01:56:49.542Z,98457.59
2022-09-28T02:01:23.781Z,98456.78
2022-09-28T02:05:49.314Z,98466.59
2022-09-28T02:10:11.027Z,98466.41
2022-09-28T02:14:28.907Z,98467.00
2022-09-28T02:18:45.543Z,98461.75
2022-09-28T02:23:02.939Z,98462.44
2022-09-28T02:27:40.235Z,98473.97
2022-09-28T02:31:56.269Z,98470.34
2022-09-28T02:36:12.416Z,98461.16
2022-09-28T02:40:34.855Z,98453.66
2022-09-28T02:45:12.685Z,98464.25
2022-09-28T02:49:35.015Z,98465.88
2022-09-28T02:54:17.973Z,98468.25
2022-09-28T02:58:43.535Z,98488.91
2022-09-28T03:03:08.755Z,98498.81
2022-09-28T03:07:47.328Z,98497.28
2022-09-28T03:12:10.785Z,98498.50
2022-09-28T03:16:27.682Z,98499.69
2022-09-28T03:20:43.681Z,98493.16
2022-09-28T03:24:59.637Z,98495.25
2022-09-28T03:29:15.827Z,98479.94
2022-09-28T03:33:32.381Z,98480.72
2022-09-28T03:37:48.355Z,98473.69
2022-09-28T03:42:04.422Z,98486.38
2022-09-28T03:46:20.472Z,98494.25
2022-09-28T03:50:36.580Z,98492.63
2022-09-28T03:54:52.549Z,98494.16
2022-09-28T03:59:08.609Z,98496.16
2022-09-28T04:03:24.576Z,98504.56
2022-09-28T04:07:40.619Z,98503.53
2022-09-28T04:12:03.802Z,98494.59
2022-09-28T04:16:20.471Z,98497.31
2022-09-28T04:20:36.597Z,98506.03
2022-09-28T04:24:52.567Z,98502.78
2022-09-28T04:29:16.928Z,98512.59
2022-09-28T04:33:33.653Z,98503.38
2022-09-28T04:37:49.771Z,98501.56
2022-09-28T04:42:05.809Z,98509.16
2022-09-28T04:46:21.847Z,98505.56
2022-09-28T04:50:37.896Z,98507.25
2022-09-28T04:54:53.869Z,98499.06
2022-09-28T04:59:10.268Z,98509.78
2022-09-28T05:03:26.367Z,98502.72
2022-09-28T05:07:42.279Z,98507.59
2022-09-28T05:11:58.432Z,98512.53
2022-09-28T05:16:16.344Z,98506.63
2022-09-28T05:20:32.636Z,98504.94
2022-09-28T05:24:48.686Z,98509.81
2022-09-28T05:29:04.743Z,98495.88
2022-09-28T05:33:21.042Z,98493.22
2022-09-28T05:37:37.547Z,98496.66
2022-09-28T05:41:54.755Z,98511.59
2022-09-28T05:46:10.867Z,98498.91
2022-09-28T05:50:27.005Z,98503.75
2022-09-28T05:54:43.075Z,98503.47
2022-09-28T05:58:59.266Z,98502.25
2022-09-28T06:03:15.628Z,98508.66
2022-09-28T06:07:31.688Z,98493.81
2022-09-28T06:11:48.447Z,98498.78
2022-09-28T06:16:05.104Z,98492.16
2022-09-28T06:20:21.091Z,98482.97
2022-09-28T06:24:37.040Z,98494.69
2022-09-28T06:28:53.070Z,98491.66
2022-09-28T06:33:13.333Z,98493.72
2022-09-28T06:37:29.402Z,98488.38
2022-09-28T06:41:45.581Z,98483.44
2022-09-28T06:46:02.506Z,98469.22
2022-09-28T06:50:19.481Z,98475.50
2022-09-28T06:54:35.450Z,98479.03
2022-09-28T06:58:51.466Z,98477.13
2022-09-28T07:03:12.850Z,98471.94
2022-09-28T07:07:28.845Z,98478.72
2022-09-28T07:11:44.929Z,98475.28
2022-09-28T07:16:01.853Z,98481.06
2022-09-28T07:20:19.548Z,98485.13
2022-09-28T07:24:35.850Z,98495.25
2022-09-28T07:28:52.190Z,98496.00
2022-09-28T07:33:09.834Z,98485.34
2022-09-28T07:37:26.646Z,98467.22
2022-09-28T07:41:43.273Z,98471.75
2022-09-28T07:45:59.405Z,98469.41
2022-09-28T07:50:15.533Z,98481.75
2022-09-28T07:54:31.760Z,98473.50
2022-09-28T07:58:48.814Z,98467.06
2022-09-28T08:03:04.819Z,98472.56
2022-09-28T08:07:24.188Z,98462.81
2022-09-28T08:11:41.632Z,98464.62
2022-09-28T08:16:02.029Z,98465.06
2022-09-28T08:20:36.796Z,98471.84
2022-09-28T08:24:52.931Z,98477.34
2022-09-28T08:29:09.267Z,98479.06
2022-09-28T08:33:25.342Z,98475.72
2022-09-28T08:37:41.963Z,98467.25
2022-09-28T08:42:32.602Z,98459.78
2022-09-28T08:46:53.810Z,98452.56
2022-09-28T08:51:27.592Z,98445.56
2022-09-28T08:55:45.363Z,98431.09
2022-09-28T09:00:02.678Z,98423.75
2022-09-28T09:04:18.766Z,98432.47
2022-09-28T09:09:01.086Z,98416.66
2022-09-28T09:13:31.637Z,98419.50
2022-09-28T09:18:03.264Z,98414.66
2022-09-28T09:22:29.239Z,98410.09
2022-09-28T09:26:45.830Z,98415.00
2022-09-28T09:31:22.743Z,98419.06
2022-09-28T09:35:55.924Z,98444.78
2022-09-28T09:40:33.513Z,98440.44
2022-09-28T09:45:13.533Z,98462.53
2022-09-28T09:49:36.274Z,98438.13
2022-09-28T09:54:06.767Z,98449.03
2022-09-28T09:58:46.274Z,98427.56
2022-09-28T10:03:03.170Z,98429.38
2022-09-28T10:07:25.474Z,98425.13
2022-09-28T10:11:46.772Z,98425.72
2022-09-28T10:16:03.167Z,98429.34
2022-09-28T10:20:19.951Z,98441.81
2022-09-28T10:24:45.368Z,98429.56
2022-09-28T10:29:04.725Z,98435.44
2022-09-28T10:33:34.388Z,98432.91
2022-09-28T10:38:03.451Z,98429.16
2022-09-28T10:42:22.763Z,98434.72
2022-09-28T10:46:39.706Z,98418.88
2022-09-28T10:51:06.209Z,98414.16
2022-09-28T10:55:23.434Z,98423.19
2022-09-28T10:59:43.130Z,98412.81
2022-09-28T11:04:04.890Z,98413.72
2022-09-28T11:08:28.507Z,98400.47
2022-09-28T11:12:45.573Z,98403.22
2022-09-28T11:17:18.111Z,98399.31
2022-09-28T11:21:46.148Z,98381.97
2022-09-28T11:26:09.469Z,98387.50
2022-09-28T11:30:38.829Z,98392.75
2022-09-28T11:34:59.458Z,98375.78
2022-09-28T11:39:27.379Z,98377.25
2022-09-28T11:43:52.418Z,98375.25
2022-09-28T11:48:17.824Z,98371.25
2022-09-28T11:52:53.792Z,98369.13
2022-09-28T11:57:16.954Z,98378.91
2022-09-28T12:01:47.575Z,98368.59
2022-09-28T12:06:11.838Z,98367.28
2022-09-28T12:10:34.153Z,98363.78
2022-09-28T12:14:53.279Z,98353.06
2022-09-28T12:19:21.889Z,98333.28
2022-09-28T12:23:40.580Z,98338.87
2022-09-28T12:28:07.266Z,98338.25
2022-09-28T12:32:41.443Z,98311.81
2022-09-28T12:37:13.146Z,98312.28
2022-09-28T12:41:57.742Z,98312.41
2022-09-28T12:46:46.147Z,98312.62
2022-09-28T12:51:14.986Z,98290.84
2022-09-28T12:55:50.150Z,98294.75
2022-09-28T13:00:10.380Z,98298.06
2022-09-28T13:04:38.040Z,98307.28
2022-09-28T13:08:56.997Z,98309.78
2022-09-28T13:13:45.058Z,98295.81
2022-09-28T13:18:23.013Z,98309.59
2022-09-28T13:22:46.051Z,98304.28
2022-09-28T13:27:15.035Z,98314.38
2022-09-28T13:31:35.977Z,98316.25
2022-09-28T13:35:54.343Z,98322.63
2022-09-28T13:40:10.575Z,98331.13
2022-09-28T13:45:09.696Z,98329.00
2022-09-28T13:49:51.433Z,98327.84
2022-09-28T13:54:41.494Z,98335.97
2022-09-28T13:59:32.399Z,98325.56
2022-09-28T14:04:10.538Z,98331.87
2022-09-28T14:08:55.648Z,98317.59
2022-09-28T14:13:12.318Z,98311.03
2022-09-28T14:17:28.448Z,98322.38
2022-09-28T14:22:06.658Z,98302.37
2022-09-28T14:26:25.399Z,98309.81
2022-09-28T14:30:53.420Z,98307.91
2022-09-28T14:35:52.734Z,98295.69
2022-09-28T14:40:38.858Z,98297.19
2022-09-28T14:45:06.751Z,98301.81
2022-09-28T14:49:43.656Z,98302.16
2022-09-28T14:54:48.216Z,98300.13
2022-09-28T14:59:06.302Z,98298.00
2022-09-28T15:03:23.343Z,98290.81
2022-09-28T15:07:48.294Z,98281.03
2022-09-28T15:12:12.290Z,98293.13
2022-09-28T15:16:30.578Z,98308.25
2022-09-28T15:20:50.643Z,98300.00
2022-09-28T15:25:20.212Z,98291.66
2022-09-28T15:29:36.285Z,98299.06
2022-09-28T15:34:11.011Z,98306.50
2022-09-28T15:38:27.251Z,98297.47
2022-09-28T15:42:45.334Z,98287.59
2022-09-28T15:47:08.650Z,98286.44
2022-09-28T15:51:24.863Z,98287.94
2022-09-28T15:55:44.305Z,98286.84
2022-09-28T16:00:00.897Z,98288.72
2022-09-28T16:04:42.086Z,98292.13
2022-09-28T16:08:58.209Z,98293.75
2022-09-28T16:13:21.235Z,98294.19
2022-09-28T16:17:38.125Z,98302.72
2022-09-28T16:21:59.538Z,98293.53
2022-09-28T16:26:28.541Z,98302.94
2022-09-28T16:31:02.057Z,98300.47
2022-09-28T16:35:25.752Z,98307.78
2022-09-28T16:39:41.782Z,98301.87
2022-09-28T16:44:01.164Z,98313.56
2022-09-28T16:48:19.532Z,98312.22
2022-09-28T16:52:59.233Z,98306.09
2022-09-28T16:57:16.483Z,98294.97
2022-09-28T17:01:33.092Z,98301.87
2022-09-28T17:05:49.918Z,98304.19
2022-09-28T17:10:45.058Z,98303.69
2022-09-28T17:15:09.872Z,98299.78
2022-09-28T17:19:29.633Z,98301.00
2022-09-28T17:23:46.999Z,98300.63
2022-09-28T17:28:03.724Z,98297.47
2022-09-28T17:32:19.989Z,98302.84
2022-09-28T17:36:36.396Z,98302.41
2022-09-28T17:40:52.582Z,98308.28
2022-09-28T17:45:08.939Z,98301.63
2022-09-28T17:49:26.192Z,98296.28
2022-09-28T17:53:42.959Z,98290.41
2022-09-28T17:58:01.416Z,98308.09
2022-09-28T18:02:17.500Z,98302.16
2022-09-28T18:06:34.011Z,98289.62
2022-09-28T18:10:50.958Z,98294.72
2022-09-28T18:15:07.491Z,98300.87
2022-09-28T18:19:27.499Z,98299.50
2022-09-28T18:23:47.415Z,98301.81
2022-09-28T18:28:04.363Z,98305.62
2022-09-28T18:32:21.188Z,98305.09
2022-09-28T18:36:37.365Z,98313.16
2022-09-28T18:40:54.997Z,98310.06
2022-09-28T18:45:12.172Z,98305.16
2022-09-28T18:49:29.692Z,98315.22
2022-09-28T18:53:45.830Z,98318.47
2022-09-28T18:58:02.334Z,98320.84
2022-09-28T19:02:18.625Z,98327.44
2022-09-28T19:06:39.112Z,98327.75
2022-09-28T19:11:17.827Z,98330.16
2022-09-28T19:15:34.817Z,98327.31
2022-09-28T19:19:51.799Z,98335.03
2022-09-28T19:24:10.051Z,98344.09
2022-09-28T19:28:28.080Z,98334.31
2022-09-28T19:32:44.227Z,98339.56
2022-09-28T19:37:05.769Z,98343.16
2022-09-28T19:41:43.975Z,98337.50
2022-09-28T19:46:05.094Z,98338.63
2022-09-28T19:50:21.196Z,98329.44
2022-09-28T19:54:38.258Z,98333.25
2022-09-28T19:58:54.451Z,98330.31
2022-09-28T20:03:10.505Z,98331.16
2022-09-28T20:07:26.534Z,98325.81
2022-09-28T20:11:42.813Z,98311.84
2022-09-28T20:16:10.844Z,98321.59
2022-09-28T20:20:27.028Z,98315.75
2022-09-28T20:24:43.052Z,98322.31
2022-09-28T20:28:58.992Z,98329.94
2022-09-28T20:33:22.856Z,98329.16
2022-09-28T20:37:44.936Z,98329.28
2022-09-28T20:42:00.868Z,98329.53
2022-09-28T20:46:18.947Z,98316.00
2022-09-28T20:50:35.240Z,98321.03
2022-09-28T20:54:51.276Z,98334.13
2022-09-28T20:59:13.853Z,98317.63
2022-09-28T21:03:29.922Z,98322.63
2022-09-28T21:07:45.881Z,98319.59
2022-09-28T21:12:02.478Z,98320.34
2022-09-28T21:16:18.555Z,98307.06
2022-09-28T21:20:34.535Z,98301.41
2022-09-28T21:24:50.612Z,98297.06
2022-09-28T21:29:10.792Z,98283.78
2022-09-28T21:33:26.791Z,98285.75
2022-09-28T21:37:42.787Z,98290.94
2022-09-28T21:41:58.758Z,98288.66
2022-09-28T21:46:14.734Z,98281.59
2022-09-28T21:50:31.097Z,98282.94
2022-09-28T21:54:47.069Z,98269.88
2022-09-28T21:59:03.092Z,98273.00
2022-09-28T22:03:19.114Z,98285.87
2022-09-28T22:07:35.174Z,98291.38
2022-09-28T22:11:51.443Z,98289.28
2022-09-28T22:16:08.346Z,98288.22
2022-09-28T22:20:24.391Z,98301.19
2022-09-28T22:24:40.366Z,98297.62
2022-09-28T22:29:01.192Z,98302.91
2022-09-28T22:33:17.309Z,98293.06
2022-09-28T22:37:33.656Z,98287.38
2022-09-28T22:41:49.611Z,98282.62
2022-09-28T22:46:11.586Z,98296.28
2022-09-28T22:50:27.643Z,98289.84
2022-09-28T22:54:43.783Z,98284.50
2022-09-28T22:59:00.207Z,98286.75
2022-09-28T23:03:16.419Z,98283.75
2022-09-28T23:07:33.285Z,98281.94
2022-09-28T23:11:50.297Z,98274.66
2022-09-28T23:16:08.303Z,98271.78
2022-09-28T23:20:24.840Z,98267.31
2022-09-28T23:24:40.926Z,98268.69
2022-09-28T23:28:57.384Z,98267.19
2022-09-28T23:33:17.881Z,98266.94
2022-09-28T23:37:34.123Z,98275.66
2022-09-28T23:41:50.639Z,98265.97
2022-09-28T23:46:06.836Z,98266.44
2022-09-28T23:50:23.827Z,98300.72
2022-09-28T23:54:39.921Z,98300.47
2022-09-28T23:58:55.885Z,98307.41
